Time;durP1;ratioP1;P1;durP2;ratioP2;P2;SDS_P1;SDS_P2;PMS_P1;PMS_P2;Temp;Humidity;BMP_temperature;BMP_pressure;BME280_temperature;BME280_humidity;BME280_pressure;Samples;Min_cycle;Max_cycle;Signal;HPM_P1;HPM_P2
2022/02/03 00:00:24;;;;;;;29.77;20.27;;;9.30;99.90;;;;;;5081110;28;20653;-54
2022/02/03 00:03:06;;;;;;;34.70;21.33;;;9.30;99.90;;;;;;5084328;28;20263;-56
2022/02/03 00:05:49;;;;;;;28.97;20.07;;;9.30;99.90;;;;;;5082800;28;20235;-56
2022/02/03 00:24:58;;;;;;;31.80;21.13;;;9.30;99.90;;;;;;5080966;28;20281;-54
2022/02/03 00:27:40;;;;;;;31.60;20.90;;;9.30;99.90;;;;;;5081592;28;20251;-55
2022/02/03 00:30:18;;;;;;;35.07;21.80;;;9.30;99.90;;;;;;5066201;28;20200;-54
2022/02/03 00:33:38;;;;;;;39.40;23.03;;;9.30;99.90;;;;;;5086194;28;20201;-55
2022/02/03 00:35:56;;;;;;;38.00;23.00;;;9.30;99.90;;;;;;5072183;28;20225;-53
2022/02/03 00:49:14;;;;;;;34.87;22.67;;;9.40;99.90;;;;;;5084052;28;20251;-56
2022/02/03 00:51:48;;;;;;;40.13;23.77;;;9.30;99.90;;;;;;5084904;28;20197;-54
2022/02/03 00:54:19;;;;;;;37.90;23.30;;;9.30;99.90;;;;;;5084159;28;20201;-55
2022/02/03 00:57:03;;;;;;;38.07;24.13;;;9.30;99.90;;;;;;5084772;28;20270;-54
2022/02/03 00:59:39;;;;;;;37.10;24.77;;;9.30;99.90;;;;;;5045596;28;20241;-55
2022/02/03 01:02:12;;;;;;;36.70;23.47;;;9.30;99.90;;;;;;5084073;28;20201;-54
2022/02/03 01:04:42;;;;;;;41.50;23.60;;;9.30;99.90;;;;;;5085257;28;20229;-54
2022/02/03 01:07:16;;;;;;;37.40;24.27;;;9.30;99.90;;;;;;5084980;28;20265;-56
2022/02/03 01:09:59;;;;;;;33.17;23.07;;;9.30;99.90;;;;;;5064873;28;20224;-56
2022/02/03 01:12:39;;;;;;;37.93;26.00;;;9.30;99.90;;;;;;5083783;28;20280;-55
2022/02/03 01:34:34;;;;;;;41.60;25.17;;;9.20;99.90;;;;;;5001986;28;20632;-55
2022/02/03 01:45:23;;;;;;;39.00;23.97;;;9.30;99.90;;;;;;5002061;28;20211;-57
2022/02/03 01:53:42;;;;;;;38.67;23.33;;;9.20;99.90;;;;;;4995664;28;20286;-55
2022/02/03 01:56:15;;;;;;;35.10;22.07;;;9.20;99.90;;;;;;4999704;28;20246;-54
2022/02/03 01:58:49;;;;;;;31.23;21.27;;;9.30;99.90;;;;;;5081445;28;20279;-55
2022/02/03 02:01:28;;;;;;;32.37;21.43;;;9.30;99.90;;;;;;5082470;28;20241;-57
2022/02/03 02:03:58;;;;;;;30.87;20.57;;;9.20;99.90;;;;;;5084473;28;20297;-55
2022/02/03 02:06:48;;;;;;;28.70;19.93;;;9.20;99.90;;;;;;5081876;28;20302;-55
2022/02/03 02:10:07;;;;;;;33.80;19.67;;;9.20;99.90;;;;;;5069120;28;20251;-56
2022/02/03 02:13:16;;;;;;;28.63;18.50;;;9.20;99.90;;;;;;5083549;28;20225;-56
2022/02/03 02:38:13;;;;;;;23.40;16.63;;;9.10;99.90;;;;;;5078486;28;20871;-56
2022/02/03 02:43:51;;;;;;;26.03;17.30;;;9.10;99.90;;;;;;5081080;28;20213;-57
2022/02/03 02:46:41;;;;;;;26.70;17.43;;;9.10;99.90;;;;;;5085458;28;20300;-55
2022/02/03 02:49:47;;;;;;;27.10;17.13;;;9.10;99.90;;;;;;5066505;28;20232;-55
2022/02/03 02:52:28;;;;;;;26.27;16.90;;;9.10;99.90;;;;;;5083959;28;20634;-56
2022/02/03 03:37:06;;;;;;;19.90;11.30;;;8.80;99.90;;;;;;5058679;28;20612;-53
2022/02/03 03:39:41;;;;;;;18.57;11.10;;;8.80;99.90;;;;;;5079018;28;20337;-53
2022/02/03 03:42:14;;;;;;;16.27;10.17;;;8.80;99.90;;;;;;5080562;28;20374;-54
2022/02/03 03:44:43;;;;;;;15.57;9.50;;;8.70;99.90;;;;;;5082610;28;20246;-54
2022/02/03 03:47:14;;;;;;;17.93;9.93;;;8.70;99.90;;;;;;5080651;28;20747;-54
2022/02/03 03:49:46;;;;;;;15.60;10.40;;;8.70;99.90;;;;;;5078183;28;20246;-53
2022/02/03 03:52:26;;;;;;;15.60;9.93;;;8.70;99.90;;;;;;5084514;28;20717;-54
2022/02/03 03:55:23;;;;;;;15.17;9.30;;;8.70;99.90;;;;;;5083204;28;20244;-56
2022/02/03 04:36:35;;;;;;;13.93;7.47;;;8.60;99.90;;;;;;5087135;28;20263;-54
2022/02/03 05:08:43;;;;;;;7.73;3.67;;;8.40;99.90;;;;;;5072929;28;20238;-55
2022/02/03 05:11:52;;;;;;;7.17;4.27;;;8.40;99.90;;;;;;5058369;28;20295;-54
2022/02/03 05:17:49;;;;;;;6.63;3.40;;;8.40;99.90;;;;;;5066200;28;20227;-54
2022/02/03 05:20:59;;;;;;;6.70;3.00;;;8.40;99.90;;;;;;5061170;28;20343;-56
2022/02/03 05:51:13;;;;;;;4.37;1.80;;;8.30;99.90;;;;;;4976231;28;20233;-60
2022/02/03 06:05:27;;;;;;;6.03;1.90;;;8.30;99.90;;;;;;4960670;28;20573;-59
2022/02/03 06:13:01;;;;;;;6.37;2.57;;;8.30;99.90;;;;;;5019757;28;20202;-60
2022/02/03 06:23:41;;;;;;;6.37;3.53;;;8.30;99.90;;;;;;5078865;28;20569;-60
2022/02/03 06:29:10;;;;;;;5.40;3.20;;;8.20;99.90;;;;;;5076298;28;20617;-60
2022/02/03 06:31:39;;;;;;;6.57;3.77;;;8.30;99.90;;;;;;5076581;28;20332;-60
2022/02/03 06:34:06;;;;;;;6.27;4.10;;;8.30;99.90;;;;;;5081921;28;20255;-61
2022/02/03 06:36:37;;;;;;;8.90;3.87;;;8.20;99.90;;;;;;5079352;28;20223;-60
2022/02/03 06:39:12;;;;;;;13.47;4.83;;;8.20;99.90;;;;;;5078355;28;20587;-61
2022/02/03 06:41:39;;;;;;;5.97;4.20;;;8.30;99.90;;;;;;5078803;28;20264;-60
2022/02/03 06:44:07;;;;;;;8.43;4.40;;;8.30;99.90;;;;;;5061009;28;20299;-61
2022/02/03 06:46:35;;;;;;;8.10;4.77;;;8.20;99.90;;;;;;5078914;28;20669;-61
2022/02/03 06:49:19;;;;;;;8.30;3.90;;;8.30;99.90;;;;;;5081015;28;20207;-59
2022/02/03 06:51:54;;;;;;;6.80;4.27;;;8.30;99.90;;;;;;5081284;28;20200;-62
2022/02/03 06:54:31;;;;;;;7.03;4.67;;;8.30;99.90;;;;;;5074180;28;20199;-59
2022/02/03 06:57:02;;;;;;;8.97;4.77;;;8.30;99.90;;;;;;5078467;28;20289;-59
2022/02/03 06:59:43;;;;;;;10.60;4.90;;;8.30;99.90;;;;;;5079512;28;20588;-60
2022/02/03 07:02:10;;;;;;;6.47;4.77;;;8.30;99.90;;;;;;5076102;28;20260;-59
2022/02/03 07:04:44;;;;;;;11.67;4.93;;;8.30;99.90;;;;;;5080808;28;20204;-61
2022/02/03 07:07:15;;;;;;;7.20;5.20;;;8.30;99.90;;;;;;5071384;28;20229;-61
2022/02/03 07:09:44;;;;;;;6.97;4.67;;;8.30;99.90;;;;;;5074624;28;20357;-59
2022/02/03 07:12:11;;;;;;;9.50;5.30;;;8.30;99.90;;;;;;5077736;28;20230;-61
2022/02/03 07:14:38;;;;;;;7.17;5.07;;;8.30;99.90;;;;;;5074560;28;20282;-59
2022/02/03 07:17:10;;;;;;;7.73;5.20;;;8.30;99.90;;;;;;5065810;28;20195;-60
2022/02/03 07:19:43;;;;;;;7.83;4.77;;;8.20;99.90;;;;;;5064764;28;20250;-59
2022/02/03 07:22:10;;;;;;;8.33;4.80;;;8.20;99.90;;;;;;5083668;28;20203;-59
2022/02/03 07:24:37;;;;;;;9.07;4.87;;;8.30;99.90;;;;;;5077743;28;20205;-59
2022/02/03 07:27:04;;;;;;;8.53;5.30;;;8.30;99.90;;;;;;5081831;28;20656;-59
2022/02/03 07:29:31;;;;;;;9.20;4.87;;;8.20;99.90;;;;;;5074208;28;20629;-58
2022/02/03 07:31:58;;;;;;;9.77;5.50;;;8.20;99.90;;;;;;5076665;28;20231;-59
2022/02/03 07:34:24;;;;;;;9.67;4.77;;;8.20;99.90;;;;;;5081101;28;20205;-58
2022/02/03 07:36:51;;;;;;;10.97;5.63;;;8.20;99.90;;;;;;5079987;28;20261;-58
2022/02/03 07:39:18;;;;;;;9.77;5.47;;;8.20;99.90;;;;;;5080176;28;20240;-60
2022/02/03 07:41:45;;;;;;;7.60;5.03;;;8.20;99.90;;;;;;5081304;28;20699;-60
2022/02/03 07:44:15;;;;;;;8.83;6.40;;;8.20;99.90;;;;;;5080342;28;20240;-62
2022/02/03 07:46:42;;;;;;;10.30;5.60;;;8.20;99.90;;;;;;5083002;28;20202;-61
2022/02/03 07:49:09;;;;;;;9.37;5.13;;;8.20;99.90;;;;;;5079531;28;20210;-59
2022/02/03 07:51:36;;;;;;;8.63;5.10;;;8.20;99.90;;;;;;5082806;28;20200;-61
2022/02/03 07:54:04;;;;;;;10.07;5.60;;;8.20;99.90;;;;;;5080770;28;20655;-61
2022/02/03 07:56:32;;;;;;;8.90;4.87;;;8.10;99.90;;;;;;5078382;28;20210;-62
2022/02/03 07:58:59;;;;;;;10.70;5.90;;;8.10;99.90;;;;;;5076669;28;20546;-59
2022/02/03 08:01:26;;;;;;;11.17;5.10;;;8.20;99.90;;;;;;5078112;28;20566;-58
2022/02/03 08:03:54;;;;;;;8.90;6.17;;;8.10;99.90;;;;;;5069881;28;20199;-60
2022/02/03 08:06:26;;;;;;;8.83;5.47;;;8.10;99.90;;;;;;5057507;28;20290;-59
2022/02/03 08:08:59;;;;;;;8.87;5.60;;;8.20;99.90;;;;;;5075658;28;20726;-60
2022/02/03 08:11:32;;;;;;;9.57;5.57;;;8.10;99.90;;;;;;5075769;28;20209;-59
2022/02/03 08:14:13;;;;;;;8.63;5.97;;;8.10;99.90;;;;;;5057863;28;20292;-60
2022/02/03 08:16:46;;;;;;;9.57;5.10;;;8.20;99.90;;;;;;5073097;28;20275;-59
2022/02/03 08:19:26;;;;;;;7.43;5.60;;;8.10;99.90;;;;;;5073718;28;20201;-60
2022/02/03 08:22:08;;;;;;;10.33;5.87;;;8.10;99.90;;;;;;5074017;28;20277;-60
2022/02/03 08:24:51;;;;;;;9.67;5.63;;;8.20;99.90;;;;;;5073852;28;20251;-60
2022/02/03 08:32:35;;;;;;;12.60;6.00;;;8.20;99.90;;;;;;5082563;28;20230;-59
2022/02/03 08:37:47;;;;;;;10.87;6.00;;;8.20;99.90;;;;;;5078837;28;20225;-59
2022/02/03 08:40:42;;;;;;;9.30;6.17;;;8.10;99.90;;;;;;5056238;28;20635;-58
2022/02/03 08:43:10;;;;;;;14.40;6.60;;;8.10;99.90;;;;;;5068121;28;20702;-59
2022/02/03 08:45:36;;;;;;;11.60;5.83;;;8.10;99.90;;;;;;5073577;28;20207;-59
2022/02/03 08:48:04;;;;;;;7.03;5.37;;;8.00;99.90;;;;;;5079667;28;20398;-56
2022/02/03 08:50:33;;;;;;;12.20;6.10;;;8.00;99.90;;;;;;5071406;28;20503;-58
2022/02/03 08:56:02;;;;;;;11.23;6.20;;;8.00;99.90;;;;;;5078821;28;20227;-55
2022/02/03 09:37:05;;;;;;;11.17;5.23;;;8.00;99.90;;;;;;5077578;28;20312;-57
2022/02/03 09:58:19;;;;;;;8.83;4.90;;;8.10;99.90;;;;;;5066222;28;20689;-60
2022/02/03 10:03:37;;;;;;;7.43;4.53;;;8.10;99.90;;;;;;5081908;28;20237;-59
2022/02/03 10:06:11;;;;;;;8.30;4.27;;;8.10;99.90;;;;;;5065492;28;20255;-60
2022/02/03 10:08:48;;;;;;;10.70;4.30;;;8.20;99.90;;;;;;5078713;28;20757;-60
2022/02/03 10:11:27;;;;;;;8.33;4.33;;;8.20;99.90;;;;;;5075076;28;20221;-59
2022/02/03 10:14:03;;;;;;;12.97;4.43;;;8.20;99.90;;;;;;5074265;28;20660;-59
2022/02/03 10:16:36;;;;;;;9.40;4.43;;;8.20;99.90;;;;;;5062568;28;20552;-59
2022/02/03 10:19:06;;;;;;;5.50;4.20;;;8.20;99.90;;;;;;5078009;28;20647;-60
2022/02/03 10:21:33;;;;;;;9.17;4.77;;;8.30;99.90;;;;;;5078942;28;20258;-58
2022/02/03 10:24:07;;;;;;;8.30;4.73;;;8.30;99.90;;;;;;5078059;28;20662;-60
2022/02/03 10:26:38;;;;;;;10.63;4.57;;;8.30;99.90;;;;;;5077598;28;20237;-59
2022/02/03 10:29:10;;;;;;;12.77;4.90;;;8.40;99.90;;;;;;5077169;28;20738;-60
2022/02/03 10:31:40;;;;;;;11.20;5.37;;;8.40;99.90;;;;;;5057588;28;20220;-59
2022/02/03 10:34:15;;;;;;;7.83;5.10;;;8.40;99.90;;;;;;5080080;28;20190;-58
2022/02/03 10:37:12;;;;;;;10.37;5.63;;;8.30;99.90;;;;;;5080292;28;20664;-57
2022/02/03 10:50:41;;;;;;;13.27;5.80;;;8.30;99.90;;;;;;5077384;28;20625;-60
2022/02/03 11:01:16;;;;;;;13.53;5.53;;;8.20;99.90;;;;;;5081008;28;20206;-60
2022/02/03 11:06:24;;;;;;;9.90;5.67;;;8.30;99.90;;;;;;5074728;28;20286;-59
2022/02/03 11:09:02;;;;;;;11.60;5.00;;;8.30;99.90;;;;;;5064170;28;20234;-59
2022/02/03 11:11:38;;;;;;;7.50;4.90;;;8.20;99.90;;;;;;5061460;28;20221;-58
2022/02/03 11:14:05;;;;;;;6.57;4.70;;;8.20;99.90;;;;;;5079868;28;20658;-60
2022/02/03 11:16:39;;;;;;;8.43;5.53;;;8.30;99.90;;;;;;5072370;28;20686;-60
2022/02/03 11:19:09;;;;;;;9.30;4.93;;;8.40;99.90;;;;;;5078735;28;20226;-59
2022/02/03 11:21:37;;;;;;;10.67;4.90;;;8.40;99.90;;;;;;5078379;28;20199;-60
2022/02/03 11:24:18;;;;;;;11.43;5.40;;;8.50;99.90;;;;;;5081299;28;20215;-58
2022/02/03 11:27:03;;;;;;;9.27;4.77;;;8.40;99.90;;;;;;5078609;28;20288;-60
2022/02/03 11:30:14;;;;;;;11.37;5.57;;;8.50;99.90;;;;;;5077359;28;20577;-57
2022/02/03 11:32:59;;;;;;;8.50;5.00;;;8.50;99.90;;;;;;5081999;28;21074;-59
2022/02/03 11:58:32;;;;;;;12.40;5.23;;;8.40;99.90;;;;;;5079063;28;20255;-58
2022/02/03 12:01:18;;;;;;;9.20;4.27;;;8.40;99.90;;;;;;5070061;28;20218;-59
2022/02/03 12:15:47;;;;;;;9.47;3.80;;;8.40;99.90;;;;;;5059248;28;20316;-59
2022/02/03 12:18:57;;;;;;;5.53;4.03;;;8.20;99.90;;;;;;5032010;28;20288;-59
2022/02/03 12:21:26;;;;;;;9.97;4.67;;;8.10;99.90;;;;;;5063200;28;20264;-58
2022/02/03 12:24:34;;;;;;;8.90;5.07;;;8.00;99.90;;;;;;5060267;28;20267;-60
2022/02/03 12:27:16;;;;;;;10.43;4.73;;;8.00;99.90;;;;;;5057910;28;20225;-60
2022/02/03 12:29:52;;;;;;;10.90;4.47;;;8.00;99.90;;;;;;5057694;28;20226;-59
2022/02/03 12:40:30;;;;;;;10.60;4.30;;;7.80;99.90;;;;;;5060631;28;20750;-57
2022/02/03 12:43:28;;;;;;;7.57;4.60;;;7.80;99.90;;;;;;5062731;28;20795;-57
2022/02/03 12:45:55;;;;;;;10.20;4.80;;;7.80;99.90;;;;;;5049254;28;20267;-58
2022/02/03 12:48:24;;;;;;;8.87;4.77;;;7.90;99.90;;;;;;5051501;28;20253;-58
2022/02/03 12:50:53;;;;;;;8.13;5.30;;;8.00;99.90;;;;;;5040804;28;20687;-58
2022/02/03 12:53:21;;;;;;;14.30;5.40;;;8.00;99.90;;;;;;5060895;28;20218;-58
2022/02/03 12:55:52;;;;;;;9.97;5.30;;;7.90;99.90;;;;;;5061235;28;20651;-59
2022/02/03 12:58:24;;;;;;;7.97;5.17;;;8.00;99.90;;;;;;5043313;28;20283;-58
2022/02/03 13:00:59;;;;;;;11.50;5.43;;;7.90;99.90;;;;;;5058151;28;20644;-58
2022/02/03 13:03:41;;;;;;;9.47;5.57;;;7.80;99.90;;;;;;5061219;28;20228;-57
2022/02/03 13:06:13;;;;;;;9.17;4.80;;;7.80;99.90;;;;;;5059920;28;20588;-58
2022/02/03 13:08:49;;;;;;;10.10;5.53;;;7.70;99.90;;;;;;5065316;28;20621;-59
2022/02/03 13:17:21;;;;;;;9.70;5.70;;;7.70;99.90;;;;;;5080932;28;20198;-59
2022/02/03 13:20:24;;;;;;;11.63;5.87;;;7.80;99.90;;;;;;5077607;28;20210;-59
2022/02/03 13:23:00;;;;;;;13.13;6.47;;;7.80;99.90;;;;;;5084509;28;20206;-58
2022/02/03 13:25:38;;;;;;;10.13;6.10;;;7.70;99.90;;;;;;5076574;28;20620;-59
2022/02/03 13:28:16;;;;;;;8.30;5.77;;;7.70;99.90;;;;;;5081868;28;20259;-59
2022/02/03 13:31:00;;;;;;;11.63;6.67;;;7.60;99.90;;;;;;5077970;28;20249;-58
2022/02/03 13:33:42;;;;;;;9.97;6.10;;;7.70;99.90;;;;;;5079408;28;20659;-59
2022/02/03 13:36:25;;;;;;;11.90;6.50;;;7.70;99.90;;;;;;5079022;28;20284;-58
2022/02/03 13:39:02;;;;;;;15.77;7.30;;;7.70;99.90;;;;;;5084026;28;20256;-56
2022/02/03 13:41:32;;;;;;;11.83;6.13;;;7.80;99.90;;;;;;5079165;28;20565;-60
2022/02/03 13:44:07;;;;;;;9.50;6.60;;;7.70;99.90;;;;;;5078533;28;20601;-59
2022/02/03 13:46:39;;;;;;;13.17;7.20;;;7.60;99.90;;;;;;5078744;28;20325;-59
2022/02/03 13:49:20;;;;;;;13.60;7.87;;;7.70;99.90;;;;;;5080457;28;20238;-60
2022/02/03 13:52:09;;;;;;;15.53;7.57;;;7.50;99.90;;;;;;5072586;28;20304;-60
2022/02/03 14:22:40;;;;;;;10.47;6.57;;;7.50;99.90;;;;;;5055748;28;20233;-56
2022/02/03 14:27:58;;;;;;;11.97;6.50;;;7.40;99.90;;;;;;5056758;28;20313;-56
2022/02/03 14:30:25;;;;;;;10.90;6.93;;;7.40;99.90;;;;;;5055728;28;21841;-58
2022/02/03 14:32:57;;;;;;;11.93;6.83;;;7.50;99.90;;;;;;5057390;28;20290;-57
2022/02/03 14:35:24;;;;;;;8.67;6.87;;;7.50;99.90;;;;;;5055764;28;20633;-57
2022/02/03 14:40:39;;;;;;;11.40;6.47;;;7.50;99.90;;;;;;5053526;28;20274;-63
2022/02/03 14:43:07;;;;;;;12.33;7.63;;;7.50;99.90;;;;;;5055676;28;20203;-57
2022/02/03 14:45:35;;;;;;;10.90;6.57;;;7.40;99.90;;;;;;5040639;28;20675;-60
2022/02/03 14:48:02;;;;;;;18.93;7.10;;;7.40;99.90;;;;;;5061257;28;20682;-59
2022/02/03 14:50:29;;;;;;;9.63;7.10;;;7.50;99.90;;;;;;5041835;28;20210;-59
2022/02/03 14:53:04;;;;;;;12.00;6.67;;;7.40;99.90;;;;;;5054378;28;20254;-59
2022/02/03 14:58:25;;;;;;;13.07;6.40;;;7.40;99.90;;;;;;5065362;28;20297;-60
2022/02/03 15:00:53;;;;;;;12.27;7.63;;;7.40;99.90;;;;;;5057762;28;20888;-59
2022/02/03 15:03:23;;;;;;;14.37;7.77;;;7.40;99.90;;;;;;5062691;28;20816;-59
2022/02/03 15:05:57;;;;;;;11.03;7.50;;;7.40;99.90;;;;;;5064257;28;20292;-60
2022/02/03 15:11:15;;;;;;;10.63;7.47;;;7.40;99.90;;;;;;5068348;28;20346;-58
2022/02/03 15:13:44;;;;;;;11.33;7.93;;;7.40;99.90;;;;;;5068565;28;20203;-60
2022/02/03 15:16:13;;;;;;;11.97;7.27;;;7.40;99.90;;;;;;5037804;28;20297;-60
2022/02/03 15:19:00;;;;;;;14.70;8.57;;;7.40;99.90;;;;;;5059317;28;20697;-59
2022/02/03 15:21:27;;;;;;;18.17;8.53;;;7.40;99.90;;;;;;5068922;28;20208;-60
2022/02/03 15:23:53;;;;;;;11.57;8.03;;;7.40;99.90;;;;;;5072488;28;20663;-59
2022/02/03 15:26:21;;;;;;;12.10;8.27;;;7.40;99.90;;;;;;5064048;28;20924;-58
2022/02/03 15:28:49;;;;;;;16.07;8.53;;;7.40;99.90;;;;;;5071224;28;20202;-59
2022/02/03 15:31:16;;;;;;;14.30;8.33;;;7.40;99.90;;;;;;5074053;28;20283;-59
2022/02/03 15:33:54;;;;;;;13.97;8.50;;;7.40;99.90;;;;;;5071511;28;20202;-59
2022/02/03 15:36:21;;;;;;;14.13;8.50;;;7.40;99.90;;;;;;5071708;28;20207;-59
2022/02/03 15:38:49;;;;;;;14.23;9.53;;;7.30;99.90;;;;;;5088172;28;20227;-59
2022/02/03 15:41:26;;;;;;;14.40;8.53;;;7.30;99.90;;;;;;5089895;28;20208;-59
2022/02/03 15:43:56;;;;;;;17.93;9.70;;;7.40;99.90;;;;;;5092478;28;20232;-59
2022/02/03 15:46:25;;;;;;;12.00;8.43;;;7.40;99.90;;;;;;5096448;28;20201;-58
2022/02/03 15:49:04;;;;;;;18.50;9.63;;;7.30;99.90;;;;;;5088565;28;20578;-59
2022/02/03 16:18:44;;;;;;;20.00;11.47;;;7.40;99.90;;;;;;5050991;28;20273;-58
2022/02/03 16:21:38;;;;;;;17.90;11.07;;;7.40;99.90;;;;;;5051662;28;20199;-56
2022/02/03 16:53:15;;;;;;;21.70;12.97;;;7.50;99.90;;;;;;5052543;28;20221;-60
2022/02/03 16:55:44;;;;;;;18.10;12.33;;;7.50;99.90;;;;;;5058879;28;20549;-59
2022/02/03 16:58:12;;;;;;;18.60;11.53;;;7.50;99.90;;;;;;5031205;28;20204;-59
2022/02/03 17:00:39;;;;;;;18.97;13.17;;;7.50;99.90;;;;;;5055810;28;20308;-57
2022/02/03 17:03:07;;;;;;;20.83;12.33;;;7.50;99.90;;;;;;5058384;28;20207;-59
2022/02/03 17:05:37;;;;;;;22.43;13.93;;;7.50;99.90;;;;;;5057234;28;20206;-60
2022/02/03 17:08:06;;;;;;;21.80;13.53;;;7.50;99.90;;;;;;5059809;28;20206;-57
2022/02/03 17:10:33;;;;;;;21.87;13.63;;;7.50;99.90;;;;;;5056367;28;20227;-58
2022/02/03 17:13:00;;;;;;;21.57;13.57;;;7.50;99.90;;;;;;5039869;28;20300;-59
2022/02/03 17:15:27;;;;;;;22.13;14.03;;;7.50;99.90;;;;;;5062925;28;20263;-59
2022/02/03 17:17:54;;;;;;;21.30;13.60;;;7.50;99.90;;;;;;5092333;28;20205;-58
2022/02/03 17:20:27;;;;;;;22.07;14.70;;;7.50;99.90;;;;;;5087975;28;20249;-60
2022/02/03 17:22:54;;;;;;;20.40;13.80;;;7.50;99.90;;;;;;5089249;28;20229;-59
2022/02/03 17:28:46;;;;;;;21.67;13.67;;;7.40;99.90;;;;;;5023708;28;20259;-58
2022/02/03 17:31:30;;;;;;;22.17;15.13;;;7.40;99.90;;;;;;5010880;28;20744;-58
2022/02/03 18:51:17;;;;;;;23.80;15.87;;;7.50;99.90;;;;;;5033467;28;20223;-60
2022/02/03 18:56:28;;;;;;;24.93;15.80;;;7.40;99.90;;;;;;5076577;28;20222;-57
2022/02/03 19:01:46;;;;;;;25.50;16.40;;;7.50;99.90;;;;;;5073083;28;20190;-60
2022/02/03 20:01:18;;;;;;;31.83;20.20;;;7.50;99.90;;;;;;5077529;28;20331;-59
2022/02/03 20:08:56;;;;;;;32.77;19.73;;;7.60;99.90;;;;;;5077019;28;20300;-58
2022/02/03 20:11:25;;;;;;;31.63;20.20;;;7.60;99.90;;;;;;5077528;28;20199;-59
2022/02/03 20:13:52;;;;;;;31.10;20.60;;;7.60;99.90;;;;;;5041009;28;20233;-59
2022/02/03 20:16:21;;;;;;;30.17;19.70;;;7.60;99.90;;;;;;5078044;28;20285;-59
2022/02/03 20:18:48;;;;;;;33.83;21.27;;;7.60;99.90;;;;;;5077706;28;20290;-59
2022/02/03 20:21:15;;;;;;;30.73;20.80;;;7.60;99.90;;;;;;5058377;28;20265;-59
2022/02/03 20:23:44;;;;;;;29.60;19.40;;;7.60;99.90;;;;;;5077972;28;20338;-59
2022/02/03 20:26:15;;;;;;;30.10;19.57;;;7.60;99.90;;;;;;5076943;28;20209;-60
2022/02/03 20:28:43;;;;;;;31.43;20.00;;;7.60;99.90;;;;;;5076634;28;20603;-57
2022/02/03 20:31:10;;;;;;;31.03;19.70;;;7.60;99.90;;;;;;5056352;28;20245;-59
2022/02/03 20:33:37;;;;;;;30.40;20.13;;;7.60;99.90;;;;;;5057229;28;20218;-57
2022/02/03 20:36:08;;;;;;;36.50;20.30;;;7.60;99.90;;;;;;5074259;28;20660;-63
2022/02/03 20:38:36;;;;;;;33.13;20.77;;;7.60;99.90;;;;;;5077088;28;20200;-62
2022/02/03 20:41:03;;;;;;;30.00;19.83;;;7.60;99.90;;;;;;5059888;28;20572;-60
2022/02/03 20:43:30;;;;;;;32.97;20.73;;;7.60;99.90;;;;;;5083958;28;20264;-59
2022/02/03 20:45:57;;;;;;;31.83;20.33;;;7.60;99.90;;;;;;5077482;28;20204;-58
2022/02/03 20:48:25;;;;;;;30.67;21.17;;;7.70;99.90;;;;;;5083538;28;20612;-57
2022/02/03 20:50:52;;;;;;;31.73;21.33;;;7.70;99.90;;;;;;5078179;28;20214;-59
2022/02/03 20:53:19;;;;;;;33.73;20.77;;;7.70;99.90;;;;;;5064102;28;20539;-59
2022/02/03 20:55:47;;;;;;;29.40;20.33;;;7.80;99.90;;;;;;5079968;28;20234;-57
2022/02/03 20:58:18;;;;;;;31.43;19.60;;;7.90;99.90;;;;;;5063322;28;20678;-60
2022/02/03 21:00:53;;;;;;;31.80;21.43;;;7.80;99.90;;;;;;5076786;28;20288;-59
2022/02/03 21:05:54;;;;;;;30.07;20.67;;;7.80;99.90;;;;;;5078875;28;20337;-60
2022/02/03 21:08:29;;;;;;;31.90;20.97;;;7.80;99.90;;;;;;5082192;28;20232;-60
2022/02/03 21:10:56;;;;;;;30.23;19.60;;;7.70;99.90;;;;;;5065330;28;20295;-59
2022/02/03 21:13:22;;;;;;;28.03;18.93;;;7.70;99.90;;;;;;5073860;28;20273;-59
2022/02/03 21:15:51;;;;;;;30.80;19.73;;;7.70;99.90;;;;;;5058664;28;20679;-59
2022/02/03 21:18:19;;;;;;;36.17;20.63;;;7.70;99.90;;;;;;5078471;28;20405;-60
2022/02/03 21:20:47;;;;;;;33.07;20.50;;;7.60;99.90;;;;;;5075352;28;20632;-59
2022/02/03 21:23:14;;;;;;;29.77;20.23;;;7.70;99.90;;;;;;5071905;28;20195;-59
2022/02/03 21:25:47;;;;;;;29.97;19.83;;;7.70;99.90;;;;;;5065409;28;20550;-58
2022/02/03 21:28:21;;;;;;;31.57;21.73;;;7.70;99.90;;;;;;5074221;28;20915;-60
2022/02/03 21:30:51;;;;;;;33.90;21.93;;;7.70;99.90;;;;;;5075867;28;20322;-61
2022/02/03 21:33:24;;;;;;;32.50;20.40;;;7.70;99.90;;;;;;5058509;28;20243;-60
2022/02/03 21:35:55;;;;;;;31.07;21.00;;;7.70;99.90;;;;;;5076212;28;20203;-57
2022/02/03 21:38:23;;;;;;;35.97;21.43;;;7.70;99.90;;;;;;5073875;28;20741;-60
2022/02/03 21:40:50;;;;;;;32.60;21.03;;;7.70;99.90;;;;;;5075470;28;20199;-59
2022/02/03 21:43:17;;;;;;;32.33;20.47;;;7.70;99.90;;;;;;5062491;28;20549;-59
2022/02/03 21:45:44;;;;;;;29.47;19.73;;;7.70;99.90;;;;;;5080908;28;20655;-60
2022/02/03 21:48:11;;;;;;;28.43;19.97;;;7.80;99.90;;;;;;5082383;28;20737;-60
2022/02/03 21:50:41;;;;;;;35.43;22.63;;;7.80;99.90;;;;;;5079770;28;20207;-60
2022/02/03 21:53:22;;;;;;;32.20;21.50;;;7.70;99.90;;;;;;5061955;28;20262;-60
2022/02/03 21:55:50;;;;;;;33.97;20.53;;;7.80;99.90;;;;;;5077083;28;20200;-57
2022/02/03 21:58:17;;;;;;;32.33;21.47;;;7.70;99.90;;;;;;5083887;28;20195;-60
2022/02/03 22:00:45;;;;;;;32.03;21.33;;;7.80;99.90;;;;;;5072828;28;20259;-60
2022/02/03 22:03:12;;;;;;;35.37;21.47;;;7.70;99.90;;;;;;5080412;28;20232;-58
2022/02/03 22:05:40;;;;;;;36.70;22.27;;;7.70;99.90;;;;;;5078107;28;20195;-60
2022/02/03 22:08:07;;;;;;;32.57;21.27;;;7.70;99.90;;;;;;5037775;28;20416;-57
2022/02/03 22:10:34;;;;;;;30.77;20.13;;;7.70;99.90;;;;;;5072466;28;20260;-59
2022/02/03 22:13:01;;;;;;;34.20;21.50;;;7.70;99.90;;;;;;5078898;28;20355;-58
2022/02/03 22:15:29;;;;;;;31.30;21.17;;;7.70;99.90;;;;;;5077345;28;20195;-60
2022/02/03 22:17:56;;;;;;;33.20;20.30;;;7.70;99.90;;;;;;5075667;28;20692;-58
2022/02/03 22:20:35;;;;;;;32.63;21.80;;;7.70;99.90;;;;;;5056549;28;20278;-59
2022/02/03 22:26:39;;;;;;;33.20;19.50;;;7.70;99.90;;;;;;4999686;28;20218;-59
2022/02/03 22:45:22;;;;;;;30.73;20.23;;;7.70;99.90;;;;;;5082770;28;20230;-59
2022/02/03 22:50:16;;;;;;;30.83;20.57;;;7.70;99.90;;;;;;5079886;28;20195;-61
2022/02/03 22:52:44;;;;;;;31.80;20.70;;;7.70;99.90;;;;;;5076304;28;20273;-60
2022/02/03 22:55:13;;;;;;;31.73;20.97;;;7.70;99.90;;;;;;5059198;28;20260;-60
2022/02/03 22:57:44;;;;;;;33.83;21.30;;;7.80;99.90;;;;;;5070290;28;20503;-60
2022/02/03 23:00:15;;;;;;;32.87;21.17;;;7.80;99.90;;;;;;5073178;28;20285;-59
2022/02/03 23:02:42;;;;;;;36.07;21.83;;;7.70;99.90;;;;;;5075522;28;20203;-58
2022/02/03 23:05:16;;;;;;;34.20;21.00;;;7.80;99.90;;;;;;5065983;28;20226;-62
2022/02/03 23:10:23;;;;;;;32.63;19.80;;;7.70;99.90;;;;;;5074670;28;20351;-60
2022/02/03 23:18:30;;;;;;;30.37;20.00;;;7.70;99.90;;;;;;5074212;28;20202;-58
2022/02/03 23:21:16;;;;;;;31.10;19.97;;;7.70;99.90;;;;;;5078562;28;20293;-58
2022/02/03 23:23:38;;;;;;;32.87;20.30;;;7.70;99.90;;;;;;5080096;28;20563;-61
2022/02/03 23:26:07;;;;;;;27.63;19.23;;;7.70;99.90;;;;;;5080642;28;20215;-60
2022/02/03 23:28:35;;;;;;;32.93;19.20;;;7.70;99.90;;;;;;5077363;28;20409;-61
2022/02/03 23:31:03;;;;;;;31.40;19.03;;;7.70;99.90;;;;;;5078034;28;20558;-60
2022/02/03 23:33:31;;;;;;;29.80;18.90;;;7.70;99.90;;;;;;5076809;28;20211;-59
2022/02/03 23:35:58;;;;;;;33.97;19.17;;;7.70;99.90;;;;;;5075682;28;20289;-62
2022/02/03 23:38:37;;;;;;;27.83;18.53;;;7.80;99.90;;;;;;5080244;28;20249;-61
2022/02/03 23:44:02;;;;;;;29.97;19.03;;;7.70;99.90;;;;;;5078299;28;20295;-60
